Terminal Aerodrome Forecast
Issued by NWS Twin Cities, MN

Home | Current Version | Previous Version | Text Only | Print | Product List | Glossary On
Versions: 1 2 3 4 5 6 7 8 9 10 11 12 13
000
FTUS43 KMPX 242343
TAFSTC
TAF
KSTC 242343Z 2500/2524 11009KT P6SM VCSH OVC020
     FM250700 08008KT 4SM BR OVC008
     FM251500 09008KT P6SM OVC015
     FM252200 08010G16KT P6SM SCT030 OVC050=

USA.gov is the U.S. government's official web portal to all federal, state and local government web resources and services.